Trabzon International Airport

LTCG · 特拉布宗省, 土耳其

罗盘
风向 的 风向 120° Trabzon International Airport 11/29
风: 8 kt, 3 beaufort

8 kt

1 kt
改变
0 ft 1.000 2.000 3.000 4.000 5.000
CAVOK
METAR LTCG 231520Z 12008KT CAVOK 09/07 Q1025 NOSIG RMK RWY29 12007KT

METAR Trabzon International Airport - LTCG/TZX

Trabzon International Airport是,土耳其中的中型机场。 该机场位于纬度40,99510和经度39,78970。 该机场有一条跑道: 11/29. 本场的ICAO机场代码为LTCG。 该机场的IATA代码为TZX。 机场在Ankara FIR中。

该航空气象观测是针对Trabzon International Airport在2024年2月23日 18:20, 当地时间进行的。

机场观察

风向为120°,速度为8 kt。

天气为CAVOK。这意味着在5.000 ft或MSA(最低安全高度)以下(以较高者为准)以下没有云。这也意味着没有观测到积雨云或高耸的积云,可见度为10 km 或者更多或更高。此外,不会有雾,降雨或其他重要天气。

温度为9 °C,阵风为5 °C。 露点为7 °C,相对湿度为87%。 海平面上的气压为1025 hPa (QNH)。

白天

今天,太阳从07:04升起,在18:03降落。 这适用于Trabzon International Airport,世界夏令时可能有所不同。 当地时间与世界标准时间之间的时差为+3 小时。 当前,没有夏令时有效。

公司介绍

我们没有关于这个机场的公司信息。

体会

到Vliegles.nl去找飞行课程,跳伞和其他飞行体验。 浏览页面,了解Trabzon International Airport附近所有可用的活动。 你也可以使用搜索功能来寻找你所在地附近的特定飞行课程、跳伞或其他飞行体验。

跑道

Id 标题 侧风 逆风 侧风 %
11/29 112°-292° 1 kt 8 kt 14 %

逆风成分最大的方向会被突出显示,并用于横风计算。 这并不一定意味着这个方向在使用。

温度 & 天气

温度 9 °C
露点 7 °C
相对湿度 87%
风寒 5 °C
Kp-index 0 (0-9)

评论

RWY29 12007KT

白天

日出
07:04 (12:15)
中午
12:34
日落
18:03

小工具

你想在你的网站上有一个关于Trabzon International Airport的当前航空天气(METAR)的小部件吗?

显示HTML代码
?>